Terminal Aerodrome Forecast
Issued by NWS

Home | Current Version | Previous Version | Graphics & Text | Print | Product List | Glossary On
Versions: 1 2 3 4 5 6 7 8 9 10 11 12 13 14
218
FTUS42 KMHX 241759
TAFPGV
TAF
KPGV 241759Z 2418/2518 08011KT 5SM SHRA BKN008 OVC025
     FM242000 08010KT 5SM SHRA BKN015 OVC025
     FM250300 07013KT 2SM +SHRA OVC007
     FM250900 05008KT 3SM SHRA BKN007
     FM251100 11006KT 5SM SHRA BKN015 OVC060
     FM251500 12007KT 6SM -SHRA BKN025
      AMD LTD TO CLD VIS AND WIND=

USA.gov is the U.S. government's official web portal to all federal, state and local government web resources and services.